createdAt,value
2023-04-22T00:02:24.879Z,97213.47
2023-04-22T00:04:51.671Z,97211.53
2023-04-22T00:07:20.409Z,97217.28
2023-04-22T00:09:47.127Z,97217.25
2023-04-22T00:12:13.802Z,97221.09
2023-04-22T00:14:40.578Z,97221.84
2023-04-22T00:17:07.276Z,97219.50
2023-04-22T00:19:37.327Z,97224.88
2023-04-22T00:22:04.496Z,97223.31
2023-04-22T00:24:31.097Z,97219.44
2023-04-22T00:26:57.595Z,97227.09
2023-04-22T00:29:27.338Z,97218.59
2023-04-22T00:31:53.901Z,97219.75
2023-04-22T00:34:20.463Z,97214.72
2023-04-22T00:36:53.172Z,97214.34
2023-04-22T00:39:19.628Z,97212.81
2023-04-22T00:41:47.108Z,97216.69
2023-04-22T00:44:15.379Z,97206.69
2023-04-22T00:46:42.134Z,97214.81
2023-04-22T00:49:08.862Z,97211.34
2023-04-22T00:51:35.784Z,97206.41
2023-04-22T00:54:03.403Z,97203.28
2023-04-22T00:56:31.905Z,97204.50
2023-04-22T00:58:59.943Z,97209.13
2023-04-22T01:06:44.295Z,97196.78
2023-04-22T01:09:10.873Z,97197.19
2023-04-22T01:11:37.415Z,97186.41
2023-04-22T01:14:06.450Z,97186.41
2023-04-22T01:16:35.700Z,97187.94
2023-04-22T01:19:02.563Z,97198.00
2023-04-22T01:21:31.406Z,97204.94
2023-04-22T01:24:00.994Z,97195.69
2023-04-22T01:26:28.030Z,97198.78
2023-04-22T01:28:56.455Z,97193.38
2023-04-22T01:31:23.388Z,97201.84
2023-04-22T01:33:50.647Z,97200.31
2023-04-22T01:36:19.639Z,97201.81
2023-04-22T01:38:46.279Z,97201.03
2023-04-22T01:41:13.781Z,97203.31
2023-04-22T01:43:42.348Z,97209.44
2023-04-22T01:46:09.275Z,97217.13
2023-04-22T01:48:36.439Z,97216.28
2023-04-22T01:51:05.207Z,97217.00
2023-04-22T01:53:31.709Z,97221.63
2023-04-22T01:56:02.117Z,97215.47
2023-04-22T01:58:31.918Z,97220.88
2023-04-22T02:00:58.419Z,97226.22
2023-04-22T02:03:25.150Z,97218.50
2023-04-22T02:05:58.288Z,97225.03
2023-04-22T02:08:24.763Z,97231.56
2023-04-22T02:10:51.223Z,97238.47
2023-04-22T02:13:17.919Z,97236.88
2023-04-22T02:15:44.503Z,97234.13
2023-04-22T02:18:11.397Z,97241.41
2023-04-22T02:20:39.710Z,97238.28
2023-04-22T02:23:06.581Z,97252.88
2023-04-22T02:25:33.138Z,97262.03
2023-04-22T02:28:09.441Z,97251.19
2023-04-22T02:30:39.496Z,97260.41
2023-04-22T02:33:05.997Z,97260.72
2023-04-22T02:35:34.847Z,97261.06
2023-04-22T02:38:01.596Z,97257.13
2023-04-22T02:40:28.071Z,97260.84
2023-04-22T02:42:54.704Z,97263.06
2023-04-22T02:45:21.224Z,97266.75
2023-04-22T02:47:47.772Z,97266.22
2023-04-22T02:50:22.804Z,97268.41
2023-04-22T02:52:49.483Z,97265.59
2023-04-22T02:55:16.019Z,97262.81
2023-04-22T02:57:42.623Z,97257.31
2023-04-22T03:00:12.707Z,97272.22
2023-04-22T03:02:39.373Z,97272.09
2023-04-22T03:05:08.517Z,97270.50
2023-04-22T03:07:35.099Z,97269.66
2023-04-22T03:10:01.882Z,97278.00
2023-04-22T03:12:28.393Z,97274.91
2023-04-22T03:14:57.311Z,97273.38
2023-04-22T03:17:26.226Z,97262.97
2023-04-22T03:19:52.774Z,97258.66
2023-04-22T03:22:21.203Z,97260.94
2023-04-22T03:24:47.761Z,97262.03
2023-04-22T03:27:14.310Z,97265.50
2023-04-22T03:29:42.825Z,97263.22
2023-04-22T03:32:09.610Z,97271.28
2023-04-22T03:34:37.209Z,97272.41
2023-04-22T03:37:04.165Z,97273.16
2023-04-22T03:39:31.051Z,97283.09
2023-04-22T03:42:03.249Z,97281.97
2023-04-22T03:44:29.851Z,97267.34
2023-04-22T03:46:56.360Z,97269.31
2023-04-22T03:49:23.420Z,97273.97
2023-04-22T03:51:54.726Z,97273.25
2023-04-22T03:54:21.313Z,97272.47
2023-04-22T03:56:47.814Z,97269.00
2023-04-22T03:59:14.513Z,97261.66
2023-04-22T04:01:40.963Z,97267.41
2023-04-22T04:04:07.908Z,97261.19
2023-04-22T04:06:35.120Z,97263.75
2023-04-22T04:09:07.513Z,97260.94
2023-04-22T04:11:34.020Z,97263.50
2023-04-22T04:14:07.937Z,97265.69
2023-04-22T04:16:34.497Z,97272.16
2023-04-22T04:19:06.359Z,97270.56
2023-04-22T04:21:33.656Z,97268.16
2023-04-22T04:24:00.649Z,97269.63
2023-04-22T04:26:29.912Z,97269.22
2023-04-22T04:28:58.128Z,97262.72
2023-04-22T04:31:24.906Z,97260.81
2023-04-22T04:33:52.477Z,97260.81
2023-04-22T04:36:19.882Z,97261.19
2023-04-22T04:38:47.813Z,97258.84
2023-04-22T04:41:14.520Z,97261.09
2023-04-22T04:43:42.772Z,97262.25
2023-04-22T04:46:09.371Z,97258.38
2023-04-22T04:48:36.718Z,97252.22
2023-04-22T04:51:06.218Z,97256.81
2023-04-22T04:53:32.701Z,97254.13
2023-04-22T04:55:59.179Z,97259.94
2023-04-22T04:58:27.725Z,97261.09
2023-04-22T05:00:54.395Z,97256.22
2023-04-22T05:03:21.239Z,97258.97
2023-04-22T05:05:49.046Z,97253.00
2023-04-22T05:08:15.656Z,97259.75
2023-04-22T05:10:42.700Z,97267.44
2023-04-22T05:13:14.408Z,97268.59
2023-04-22T05:15:41.165Z,97272.69
2023-04-22T05:18:08.358Z,97280.25
2023-04-22T05:20:36.158Z,97284.56
2023-04-22T05:23:02.922Z,97293.78
2023-04-22T05:25:31.694Z,97290.09
2023-04-22T05:28:00.387Z,97296.00
2023-04-22T05:30:27.456Z,97281.88
2023-04-22T05:32:53.984Z,97282.69
2023-04-22T05:35:20.544Z,97293.91
2023-04-22T05:37:47.327Z,97292.31
2023-04-22T05:40:13.858Z,97293.53
2023-04-22T05:42:40.521Z,97294.78
2023-04-22T05:45:07.799Z,97294.03
2023-04-22T05:47:35.978Z,97299.44
2023-04-22T05:50:04.586Z,97295.53
2023-04-22T05:52:31.195Z,97298.66
2023-04-22T05:54:57.764Z,97298.28
2023-04-22T05:57:24.662Z,97296.34
2023-04-22T05:59:55.153Z,97298.28
2023-04-22T06:02:21.719Z,97293.50
2023-04-22T06:04:48.795Z,97296.50
2023-04-22T06:07:17.456Z,97309.34
2023-04-22T06:09:44.186Z,97309.59
2023-04-22T06:12:11.262Z,97307.31
2023-04-22T06:14:37.718Z,97312.00
2023-04-22T06:17:04.292Z,97313.44
2023-04-22T06:19:30.887Z,97311.91
2023-04-22T06:21:57.635Z,97313.63
2023-04-22T06:24:24.207Z,97314.09
2023-04-22T06:26:50.915Z,97332.69
2023-04-22T06:29:17.429Z,97340.06
2023-04-22T06:31:44.084Z,97321.91
2023-04-22T06:34:14.776Z,97319.97
2023-04-22T06:36:41.349Z,97320.34
2023-04-22T06:39:07.863Z,97336.59
2023-04-22T06:41:40.938Z,97326.16
2023-04-22T06:44:08.507Z,97331.56
2023-04-22T06:46:35.187Z,97338.13
2023-04-22T06:49:07.892Z,97328.84
2023-04-22T06:51:34.459Z,97343.53
2023-04-22T06:54:01.069Z,97336.97
2023-04-22T06:56:34.122Z,97337.38
2023-04-22T06:59:00.638Z,97333.88
2023-04-22T07:01:27.146Z,97336.59
2023-04-22T07:03:53.834Z,97333.91
2023-04-22T07:06:22.369Z,97336.19
2023-04-22T07:08:48.918Z,97331.94
2023-04-22T07:11:15.520Z,97328.06
2023-04-22T07:13:42.025Z,97335.41
2023-04-22T07:16:08.627Z,97334.59
2023-04-22T07:18:40.154Z,97329.59
2023-04-22T07:21:06.971Z,97329.56
2023-04-22T07:23:33.479Z,97331.09
2023-04-22T07:26:00.182Z,97321.78
2023-04-22T07:28:26.730Z,97336.44
2023-04-22T07:30:55.621Z,97337.94
2023-04-22T07:33:22.393Z,97318.53
2023-04-22T07:35:49.096Z,97324.63
2023-04-22T07:38:15.726Z,97327.94
2023-04-22T07:40:42.300Z,97315.00
2023-04-22T07:43:11.228Z,97324.19
2023-04-22T07:45:37.737Z,97324.09
2023-04-22T07:48:06.309Z,97316.22
2023-04-22T07:50:32.875Z,97317.31
2023-04-22T07:52:59.413Z,97322.63
2023-04-22T07:55:28.382Z,97322.19
2023-04-22T07:57:55.204Z,97314.03
2023-04-22T08:00:21.880Z,97308.16
2023-04-22T08:02:48.619Z,97307.44
2023-04-22T08:05:15.249Z,97286.94
2023-04-22T08:07:42.175Z,97275.66
2023-04-22T08:10:13.536Z,97278.38
2023-04-22T08:12:39.974Z,97287.28
2023-04-22T08:15:06.967Z,97289.16
2023-04-22T08:17:33.653Z,97299.84
2023-04-22T08:20:00.299Z,97305.59
2023-04-22T08:22:33.303Z,97312.00
2023-04-22T08:25:00.931Z,97309.19
2023-04-22T08:27:27.390Z,97306.63
2023-04-22T08:29:53.885Z,97294.03
2023-04-22T08:32:22.667Z,97286.19
2023-04-22T08:34:51.820Z,97281.47
2023-04-22T08:37:18.802Z,97278.38
2023-04-22T08:39:45.537Z,97272.81
2023-04-22T08:42:13.013Z,97276.97
2023-04-22T08:44:39.735Z,97268.59
2023-04-22T08:47:12.668Z,97267.97
2023-04-22T08:49:40.079Z,97259.50
2023-04-22T08:52:06.874Z,97264.38
2023-04-22T08:54:36.101Z,97271.59
2023-04-22T08:57:03.099Z,97272.75
2023-04-22T08:59:32.127Z,97265.19
2023-04-22T09:01:59.265Z,97248.75
2023-04-22T09:04:25.947Z,97256.06
2023-04-22T09:06:52.523Z,97246.13
2023-04-22T09:09:19.868Z,97256.72
2023-04-22T09:11:48.251Z,97262.75
2023-04-22T09:14:16.854Z,97269.47
2023-04-22T09:16:48.277Z,97263.19
2023-04-22T09:19:15.793Z,97255.00
2023-04-22T09:21:42.403Z,97247.63
2023-04-22T09:24:18.165Z,97250.63
2023-04-22T09:26:44.555Z,97253.56
2023-04-22T09:29:15.813Z,97258.28
2023-04-22T09:31:44.627Z,97274.81
2023-04-22T09:34:11.468Z,97265.44
2023-04-22T09:36:37.999Z,97276.00
2023-04-22T09:39:09.146Z,97275.91
2023-04-22T09:41:38.896Z,97278.19
2023-04-22T09:46:41.871Z,97275.06
2023-04-22T09:49:08.480Z,97279.44
2023-04-22T09:51:35.191Z,97279.84
2023-04-22T09:54:08.465Z,97260.09
2023-04-22T09:56:52.586Z,97260.94
2023-04-22T09:59:34.101Z,97248.59
2023-04-22T10:02:04.258Z,97254.41
2023-04-22T10:04:31.375Z,97246.31
2023-04-22T10:07:00.292Z,97250.00
2023-04-22T10:09:26.868Z,97253.56
2023-04-22T10:11:56.794Z,97253.56
2023-04-22T10:14:23.714Z,97255.09
2023-04-22T10:16:54.462Z,97247.59
2023-04-22T10:19:23.017Z,97246.06
2023-04-22T10:21:53.480Z,97235.56
2023-04-22T10:24:20.416Z,97240.94
2023-04-22T10:26:49.933Z,97254.25
2023-04-22T10:29:20.215Z,97246.31
2023-04-22T10:32:04.197Z,97246.56
2023-04-22T10:34:36.329Z,97247.75
2023-04-22T10:37:11.881Z,97239.50
2023-04-22T10:39:43.733Z,97240.78
2023-04-22T10:42:13.087Z,97249.81
2023-04-22T10:44:51.351Z,97247.06
2023-04-22T10:47:38.783Z,97243.16
2023-04-22T10:50:12.891Z,97248.09
2023-04-22T10:52:42.304Z,97252.97
2023-04-22T10:55:09.398Z,97254.00
2023-04-22T10:57:41.857Z,97253.75
2023-04-22T11:00:24.168Z,97249.59
2023-04-22T11:03:18.645Z,97248.66
2023-04-22T11:05:45.768Z,97253.53
2023-04-22T11:08:13.918Z,97260.50
2023-04-22T11:10:48.113Z,97258.09
2023-04-22T11:13:16.937Z,97262.41
2023-04-22T11:15:50.160Z,97256.53
2023-04-22T11:18:25.247Z,97262.94
2023-04-22T11:20:57.806Z,97255.19
2023-04-22T11:23:26.702Z,97259.19
2023-04-22T11:26:06.098Z,97264.59
2023-04-22T11:28:33.125Z,97259.81
2023-04-22T11:31:11.733Z,97269.75
2023-04-22T11:33:41.279Z,97266.53
2023-04-22T11:36:12.031Z,97252.97
2023-04-22T11:38:40.698Z,97242.13
2023-04-22T11:41:07.430Z,97246.91
2023-04-22T11:43:34.046Z,97247.59
2023-04-22T11:46:00.780Z,97238.88
2023-04-22T11:48:29.476Z,97241.75
2023-04-22T11:51:16.268Z,97243.94
2023-04-22T11:53:50.454Z,97231.78
2023-04-22T11:56:16.934Z,97234.63
2023-04-22T11:58:45.232Z,97226.06
2023-04-22T12:01:13.748Z,97227.06
2023-04-22T12:03:40.505Z,97234.63
2023-04-22T12:06:09.305Z,97234.41
2023-04-22T12:08:41.930Z,97229.59
2023-04-22T12:11:10.788Z,97232.03
2023-04-22T12:13:37.200Z,97231.25
2023-04-22T12:16:05.750Z,97243.28
2023-04-22T12:18:52.211Z,97233.03
2023-04-22T12:21:28.418Z,97229.75
2023-04-22T12:23:57.694Z,97226.56
2023-04-22T12:26:27.291Z,97229.31
2023-04-22T12:28:55.919Z,97236.09
2023-04-22T12:31:31.631Z,97234.78
2023-04-22T12:33:58.134Z,97239.16
2023-04-22T12:36:25.304Z,97239.22
2023-04-22T12:38:53.653Z,97229.63
2023-04-22T12:41:20.233Z,97229.28
2023-04-22T12:43:49.944Z,97229.91
2023-04-22T12:46:18.466Z,97222.19
2023-04-22T12:48:45.001Z,97230.00
2023-04-22T12:51:11.452Z,97222.38
2023-04-22T12:53:43.763Z,97224.47
2023-04-22T12:56:13.856Z,97217.72
2023-04-22T12:58:40.375Z,97228.22
2023-04-22T13:01:07.090Z,97227.81
2023-04-22T13:03:33.702Z,97228.59
2023-04-22T13:06:00.234Z,97216.31
2023-04-22T13:08:33.419Z,97212.25
2023-04-22T13:11:00.308Z,97218.44
2023-04-22T13:13:26.750Z,97214.94
2023-04-22T13:15:54.435Z,97218.28
2023-04-22T13:18:22.194Z,97220.84
2023-04-22T13:20:48.976Z,97226.91
2023-04-22T13:23:23.508Z,97220.03
2023-04-22T13:25:56.096Z,97225.34
2023-04-22T13:28:22.902Z,97228.38
2023-04-22T13:30:49.739Z,97223.28
2023-04-22T13:33:16.317Z,97218.69
2023-04-22T13:35:43.026Z,97218.84
2023-04-22T13:38:11.582Z,97225.44
2023-04-22T13:40:38.123Z,97223.44
2023-04-22T13:43:04.681Z,97220.53
2023-04-22T13:45:33.498Z,97224.25
2023-04-22T13:48:00.002Z,97217.94
2023-04-22T13:50:28.858Z,97228.03
2023-04-22T13:52:57.236Z,97229.75
2023-04-22T13:55:23.735Z,97226.97
2023-04-22T13:57:51.905Z,97223.53
2023-04-22T14:00:20.529Z,97237.78
2023-04-22T14:02:47.395Z,97233.78
2023-04-22T14:05:14.215Z,97225.09
2023-04-22T14:07:42.535Z,97222.19
2023-04-22T14:10:12.120Z,97229.31
2023-04-22T14:12:42.981Z,97224.63
2023-04-22T14:15:11.330Z,97231.63
2023-04-22T14:17:38.866Z,97234.94
2023-04-22T14:20:06.752Z,97231.22
2023-04-22T14:22:33.498Z,97230.81
2023-04-22T14:25:00.216Z,97232.56
2023-04-22T14:27:27.016Z,97235.88
2023-04-22T14:29:54.079Z,97239.34
2023-04-22T14:32:21.800Z,97249.13
2023-04-22T14:34:48.824Z,97262.38
2023-04-22T14:37:22.754Z,97258.75
2023-04-22T14:39:50.323Z,97260.06
2023-04-22T14:42:18.503Z,97273.81
2023-04-22T14:44:45.324Z,97269.81
2023-04-22T14:47:11.814Z,97276.81
2023-04-22T14:49:38.533Z,97282.03
2023-04-22T14:52:11.748Z,97287.00
2023-04-22T14:54:38.464Z,97294.44
2023-04-22T14:57:04.971Z,97299.28
2023-04-22T14:59:31.576Z,97304.94
2023-04-22T15:01:58.257Z,97304.63
2023-04-22T15:04:25.084Z,97303.16
2023-04-22T15:06:59.448Z,97303.13
2023-04-22T15:09:26.069Z,97303.06
2023-04-22T15:11:54.795Z,97302.03
2023-04-22T15:14:21.929Z,97303.75
2023-04-22T15:16:48.452Z,97299.13
2023-04-22T15:19:14.971Z,97298.34
2023-04-22T15:21:41.725Z,97287.44
2023-04-22T15:24:08.271Z,97289.88
2023-04-22T15:26:34.853Z,97285.22
2023-04-22T15:29:01.638Z,97287.16
2023-04-22T15:31:28.248Z,97291.06
2023-04-22T15:33:54.802Z,97282.91
2023-04-22T15:36:23.443Z,97286.38
2023-04-22T15:38:56.434Z,97299.16
2023-04-22T15:41:31.544Z,97292.25
2023-04-22T15:43:59.922Z,97282.53
2023-04-22T15:46:29.751Z,97294.50
2023-04-22T15:49:02.509Z,97299.22
2023-04-22T15:51:30.058Z,97295.47
2023-04-22T15:53:57.452Z,97303.34
2023-04-22T15:56:26.527Z,97304.91
2023-04-22T15:58:53.048Z,97299.50
2023-04-22T16:01:22.350Z,97303.44
2023-04-22T16:03:54.249Z,97296.38
2023-04-22T16:06:20.860Z,97294.06
2023-04-22T16:08:47.389Z,97277.03
2023-04-22T16:11:15.377Z,97287.25
2023-04-22T16:13:42.532Z,97271.38
2023-04-22T16:16:09.541Z,97269.13
2023-04-22T16:18:36.420Z,97279.28
2023-04-22T16:21:03.977Z,97277.50
2023-04-22T16:23:30.940Z,97273.69
2023-04-22T16:26:00.213Z,97275.28
2023-04-22T16:28:28.984Z,97284.59
2023-04-22T16:30:55.643Z,97293.88
2023-04-22T16:33:22.284Z,97294.25
2023-04-22T16:35:53.399Z,97300.06
2023-04-22T16:38:19.929Z,97293.34
2023-04-22T16:40:48.212Z,97291.34
2023-04-22T16:43:14.776Z,97291.72
2023-04-22T16:45:41.780Z,97290.50
2023-04-22T16:48:08.501Z,97293.63
2023-04-22T16:50:35.020Z,97296.34
2023-04-22T16:53:01.536Z,97297.09
2023-04-22T16:55:29.825Z,97290.47
2023-04-22T16:57:58.180Z,97293.97
2023-04-22T17:00:26.979Z,97285.50
2023-04-22T17:02:53.762Z,97283.94
2023-04-22T17:05:20.360Z,97287.03
2023-04-22T17:07:46.912Z,97293.28
2023-04-22T17:10:15.197Z,97289.03
2023-04-22T17:12:46.375Z,97285.22
2023-04-22T17:15:14.019Z,97292.63
2023-04-22T17:17:40.674Z,97306.63
2023-04-22T17:20:07.683Z,97305.50
2023-04-22T17:22:34.301Z,97306.66
2023-04-22T17:25:09.757Z,97306.31
2023-04-22T17:27:36.309Z,97310.19
2023-04-22T17:30:05.275Z,97311.75
2023-04-22T17:32:31.846Z,97309.03
2023-04-22T17:34:58.765Z,97299.69
2023-04-22T17:37:25.729Z,97294.66
2023-04-22T17:39:54.435Z,97295.81
2023-04-22T17:42:21.068Z,97286.19
2023-04-22T17:44:48.006Z,97278.84
2023-04-22T17:47:16.252Z,97273.06
2023-04-22T17:49:43.250Z,97268.41
2023-04-22T17:52:10.130Z,97277.75
2023-04-22T17:54:36.815Z,97285.53
2023-04-22T17:57:04.033Z,97292.13
2023-04-22T18:02:26.423Z,97301.47
2023-04-22T18:04:52.956Z,97313.09
2023-04-22T18:07:19.483Z,97315.06
2023-04-22T18:09:46.122Z,97310.81
2023-04-22T18:12:12.697Z,97315.94
2023-04-22T18:14:41.521Z,97317.94
2023-04-22T18:17:08.061Z,97314.44
2023-04-22T18:19:34.529Z,97311.78
2023-04-22T18:22:01.121Z,97315.28
2023-04-22T18:24:28.124Z,97312.97
2023-04-22T18:26:56.487Z,97310.28
2023-04-22T18:29:22.956Z,97318.47
2023-04-22T18:31:49.570Z,97325.47
2023-04-22T18:34:16.094Z,97326.28
2023-04-22T18:36:42.651Z,97338.31
2023-04-22T18:39:14.261Z,97336.41
2023-04-22T18:41:40.863Z,97338.38
2023-04-22T18:44:07.525Z,97339.56
2023-04-22T18:46:34.060Z,97345.78
2023-04-22T18:49:00.592Z,97347.72
2023-04-22T18:51:30.129Z,97352.00
2023-04-22T18:53:57.062Z,97359.78
2023-04-22T18:56:23.538Z,97357.88
2023-04-22T18:58:50.214Z,97355.94
2023-04-22T19:01:17.156Z,97353.63
2023-04-22T19:03:43.990Z,97353.69
2023-04-22T19:06:10.610Z,97352.13
2023-04-22T19:08:37.218Z,97346.75
2023-04-22T19:11:03.754Z,97346.75
2023-04-22T19:13:30.497Z,97349.88
2023-04-22T19:16:04.204Z,97345.66
2023-04-22T19:18:30.783Z,97342.19
2023-04-22T19:20:57.650Z,97345.31
2023-04-22T19:23:24.200Z,97346.88
2023-04-22T19:25:51.583Z,97344.56
2023-04-22T19:28:18.252Z,97348.47
2023-04-22T19:30:46.532Z,97346.53
2023-04-22T19:33:13.074Z,97348.50
2023-04-22T19:35:39.701Z,97356.69
2023-04-22T19:38:12.480Z,97345.44
2023-04-22T19:40:39.337Z,97351.63
2023-04-22T19:43:05.817Z,97352.38
2023-04-22T19:45:34.495Z,97347.34
2023-04-22T19:48:01.266Z,97352.44
2023-04-22T19:50:27.990Z,97360.59
2023-04-22T19:53:04.700Z,97353.66
2023-04-22T19:55:33.766Z,97354.09
2023-04-22T19:58:00.675Z,97359.56
2023-04-22T20:00:29.130Z,97353.41
2023-04-22T20:02:56.940Z,97357.28
2023-04-22T20:05:24.384Z,97344.91
2023-04-22T20:07:51.916Z,97357.31
2023-04-22T20:10:19.142Z,97341.06
2023-04-22T20:12:46.186Z,97346.09
2023-04-22T20:15:21.620Z,97353.47
2023-04-22T20:17:48.527Z,97368.53
2023-04-22T20:20:15.476Z,97359.63
2023-04-22T20:22:44.621Z,97358.81
2023-04-22T20:25:13.770Z,97356.91
2023-04-22T20:27:41.273Z,97361.19
2023-04-22T20:30:08.815Z,97361.19
2023-04-22T20:32:36.756Z,97348.81
2023-04-22T20:35:04.439Z,97356.19
2023-04-22T20:37:31.990Z,97353.84
2023-04-22T20:40:04.594Z,97345.72
2023-04-22T20:42:33.245Z,97353.84
2023-04-22T20:44:59.764Z,97348.84
2023-04-22T20:47:26.319Z,97346.16
2023-04-22T20:49:54.600Z,97350.41
2023-04-22T20:52:21.778Z,97350.00
2023-04-22T20:54:54.877Z,97344.19
2023-04-22T20:57:30.101Z,97354.66
2023-04-22T20:59:56.599Z,97356.22
2023-04-22T21:02:23.602Z,97362.03
2023-04-22T21:04:55.077Z,97362.03
2023-04-22T21:07:24.251Z,97365.13
2023-04-22T21:09:53.198Z,97373.25
2023-04-22T21:12:24.225Z,97374.03
2023-04-22T21:14:51.120Z,97383.34
2023-04-22T21:17:22.991Z,97387.59
2023-04-22T21:19:57.708Z,97385.69
2023-04-22T21:22:25.289Z,97386.84
2023-04-22T21:24:52.859Z,97393.81
2023-04-22T21:27:23.231Z,97377.53
2023-04-22T21:29:50.201Z,97386.44
2023-04-22T21:32:17.505Z,97385.28
2023-04-22T21:34:44.971Z,97380.63
2023-04-22T21:37:12.243Z,97380.25
2023-04-22T21:39:39.910Z,97383.34
2023-04-22T21:42:17.153Z,97386.06
2023-04-22T21:44:49.688Z,97391.84
2023-04-22T21:47:18.809Z,97400.38
2023-04-22T21:49:47.397Z,97399.22
2023-04-22T21:52:16.465Z,97400.38
2023-04-22T21:54:43.674Z,97392.25
2023-04-22T21:57:12.405Z,97397.28
2023-04-22T21:59:39.282Z,97406.56
2023-04-22T22:02:06.036Z,97410.06
2023-04-22T22:04:37.551Z,97416.22
2023-04-22T22:07:04.711Z,97420.50
2023-04-22T22:09:31.868Z,97422.81
2023-04-22T22:11:58.824Z,97425.53
2023-04-22T22:14:25.634Z,97427.44
2023-04-22T22:16:53.902Z,97423.56
2023-04-22T22:19:20.725Z,97425.53
2023-04-22T22:21:47.210Z,97430.56
2023-04-22T22:24:13.889Z,97427.06
2023-04-22T22:26:41.355Z,97426.28
2023-04-22T22:29:15.235Z,97422.44
2023-04-22T22:31:43.124Z,97421.63
2023-04-22T22:34:11.929Z,97423.56
2023-04-22T22:36:38.461Z,97427.44
2023-04-22T22:39:11.239Z,97430.91
2023-04-22T22:41:37.724Z,97433.63
2023-04-22T22:44:04.298Z,97435.19
2023-04-22T22:46:32.598Z,97433.63
2023-04-22T22:48:59.467Z,97440.97
2023-04-22T22:51:26.307Z,97445.56
2023-04-22T22:53:52.990Z,97448.25
2023-04-22T22:56:20.998Z,97446.72
2023-04-22T22:58:48.252Z,97451.00
2023-04-22T23:01:17.486Z,97454.06
2023-04-22T23:03:48.470Z,97450.59
2023-04-22T23:06:15.485Z,97454.03
2023-04-22T23:08:43.693Z,97460.25
2023-04-22T23:11:10.244Z,97455.59
2023-04-22T23:13:36.720Z,97468.81
2023-04-22T23:16:08.752Z,97454.13
2023-04-22T23:18:36.656Z,97462.59
2023-04-22T23:21:04.718Z,97457.19
2023-04-22T23:23:31.933Z,97457.59
2023-04-22T23:26:00.995Z,97460.69
2023-04-22T23:28:28.073Z,97457.97
2023-04-22T23:30:57.507Z,97449.84
2023-04-22T23:33:25.720Z,97444.06
2023-04-22T23:36:02.286Z,97447.13
2023-04-22T23:38:30.967Z,97440.59
2023-04-22T23:40:57.434Z,97446.38
2023-04-22T23:43:25.753Z,97448.31
2023-04-22T23:45:52.301Z,97446.38
2023-04-22T23:48:21.171Z,97446.72
2023-04-22T23:50:47.863Z,97450.19
2023-04-22T23:53:14.388Z,97449.81
2023-04-22T23:55:41.150Z,97445.56
2023-04-22T23:58:07.917Z,97453.31
